Time;durP1;ratioP1;P1;durP2;ratioP2;P2;SDS_P1;SDS_P2;PMS_P1;PMS_P2;Temp;Humidity;BMP_temperature;BMP_pressure;BME280_temperature;BME280_humidity;BME280_pressure;Samples;Min_cycle;Max_cycle;Signal;HPM_P1;HPM_P2
2022/08/07 00:00:35;;;;;;;0.00;0.00;;;;;;;16.79;56.82;102307.63;7347415;19;20122;-65
2022/08/07 00:03:00;;;;;;;0.00;0.00;;;;;;;16.67;56.72;102286.75;7344132;19;20019;-65
2022/08/07 00:05:26;;;;;;;0.00;0.00;;;;;;;16.64;57.06;102285.06;7347607;19;20842;-65
2022/08/07 00:07:53;;;;;;;0.00;0.00;;;;;;;16.67;56.77;102292.88;7346687;19;20104;-66
2022/08/07 00:10:19;;;;;;;0.00;0.00;;;;;;;16.63;57.11;102293.88;7343103;19;20022;-65
2022/08/07 00:12:45;;;;;;;0.03;0.03;;;;;;;16.60;57.12;102293.94;7341938;19;20731;-64
2022/08/07 00:15:11;;;;;;;0.00;0.00;;;;;;;16.44;56.92;102272.31;7342421;19;20014;-65
2022/08/07 00:17:36;;;;;;;0.10;0.10;;;;;;;16.52;57.31;102290.59;7340239;19;20849;-65
2022/08/07 00:20:04;;;;;;;0.00;0.00;;;;;;;16.46;57.79;102277.53;7342005;19;20018;-65
2022/08/07 00:22:29;;;;;;;0.00;0.00;;;;;;;16.45;57.33;102291.63;7340701;19;20348;-64
2022/08/07 00:24:55;;;;;;;0.00;0.00;;;;;;;16.39;57.72;102283.88;7343351;19;20010;-65
2022/08/07 00:27:20;;;;;;;0.00;0.00;;;;;;;16.36;57.47;102282.16;7339329;19;20006;-65
2022/08/07 00:29:45;;;;;;;0.00;0.00;;;;;;;16.32;57.61;102276.09;7342035;19;20002;-66
2022/08/07 00:32:12;;;;;;;0.00;0.00;;;;;;;16.30;57.48;102272.59;7344293;19;20006;-65
2022/08/07 00:34:38;;;;;;;0.00;0.00;;;;;;;16.22;57.63;102268.38;7348406;19;21314;-66
2022/08/07 00:37:03;;;;;;;0.00;0.00;;;;;;;16.13;58.31;102264.19;7344771;19;20018;-65
2022/08/07 00:39:29;;;;;;;0.00;0.00;;;;;;;16.19;57.65;102274.59;7347031;19;20864;-66
2022/08/07 00:41:57;;;;;;;0.00;0.00;;;;;;;16.19;58.11;102284.28;7346430;19;20011;-65
2022/08/07 00:44:22;;;;;;;0.00;0.00;;;;;;;16.15;58.10;102277.34;7348317;19;20011;-65
2022/08/07 00:46:48;;;;;;;0.00;0.00;;;;;;;16.12;58.31;102283.56;7345811;19;20045;-65
2022/08/07 00:49:14;;;;;;;0.00;0.00;;;;;;;16.07;58.52;102277.50;7345425;19;20082;-65
2022/08/07 00:51:39;;;;;;;0.00;0.00;;;;;;;16.02;58.84;102277.59;7349823;19;20018;-64
2022/08/07 00:54:06;;;;;;;0.00;0.00;;;;;;;15.99;58.22;102277.66;7346889;19;20010;-65
2022/08/07 00:56:32;;;;;;;0.00;0.00;;;;;;;15.96;58.63;102276.84;7346801;19;20177;-65
2022/08/07 00:58:58;;;;;;;0.00;0.00;;;;;;;15.91;58.91;102268.16;7344077;19;20010;-65
2022/08/07 01:01:24;;;;;;;0.00;0.00;;;;;;;15.89;58.77;102269.97;7346656;19;20527;-66
2022/08/07 01:03:50;;;;;;;0.00;0.00;;;;;;;15.85;59.04;102268.28;7345284;19;20035;-65
2022/08/07 01:06:16;;;;;;;0.00;0.00;;;;;;;15.81;58.79;102267.47;7346971;19;20010;-65
2022/08/07 01:08:42;;;;;;;0.00;0.00;;;;;;;15.74;58.92;102258.81;7344668;19;20022;-65
2022/08/07 01:11:08;;;;;;;0.00;0.00;;;;;;;15.73;59.46;102270.25;7347814;19;20033;-65
2022/08/07 01:13:34;;;;;;;0.00;0.00;;;;;;;15.65;59.17;102251.09;7346991;19;20014;-66
2022/08/07 01:16:00;;;;;;;0.00;0.00;;;;;;;15.65;59.27;102259.00;7346767;19;20014;-65
2022/08/07 01:18:28;;;;;;;0.00;0.00;;;;;;;15.64;59.00;102259.03;7343524;19;20010;-65
2022/08/07 01:21:14;;;;;;;0.00;0.00;;;;;;;15.60;58.12;102263.44;7343715;19;20051;-65
2022/08/07 01:23:41;;;;;;;0.00;0.00;;;;;;;15.54;59.65;102258.28;7345448;19;20014;-65
2022/08/07 01:26:14;;;;;;;0.00;0.00;;;;;;;15.50;58.73;102254.84;7346029;19;20025;-65
2022/08/07 01:28:44;;;;;;;0.00;0.00;;;;;;;15.46;59.18;102254.91;7344171;19;20078;-65
2022/08/07 01:31:10;;;;;;;0.00;0.00;;;;;;;15.41;59.90;102251.50;7345952;19;20009;-65
2022/08/07 01:33:36;;;;;;;0.00;0.00;;;;;;;15.37;59.76;102249.84;7340497;19;20006;-65
2022/08/07 01:36:02;;;;;;;0.00;0.00;;;;;;;15.34;59.88;102249.88;7345223;19;20018;-66
2022/08/07 01:38:29;;;;;;;0.10;0.10;;;;;;;15.29;60.05;102250.84;7343244;19;20117;-65
2022/08/07 01:40:57;;;;;;;0.00;0.00;;;;;;;15.27;59.87;102255.28;7346666;19;20060;-65
2022/08/07 01:43:24;;;;;;;0.00;0.00;;;;;;;15.22;60.49;102250.97;7348081;19;20457;-65
2022/08/07 01:45:51;;;;;;;0.00;0.00;;;;;;;15.20;60.71;102252.75;7352554;19;20801;-65
2022/08/07 01:48:17;;;;;;;0.00;0.00;;;;;;;15.17;60.75;102250.19;7346337;19;20033;-65
2022/08/07 01:50:46;;;;;;;0.00;0.00;;;;;;;15.13;60.69;102248.50;7351371;19;20857;-65
2022/08/07 01:53:13;;;;;;;0.00;0.00;;;;;;;15.09;60.40;102250.31;7352615;19;20693;-65
2022/08/07 01:55:44;;;;;;;0.00;0.00;;;;;;;15.05;60.16;102246.88;7352208;19;20026;-66
2022/08/07 01:58:14;;;;;;;0.00;0.00;;;;;;;15.00;61.07;102242.56;7343082;19;20081;-65
2022/08/07 02:00:41;;;;;;;0.00;0.00;;;;;;;14.96;60.84;102240.91;7366400;19;20470;-65
2022/08/07 02:03:12;;;;;;;0.00;0.00;;;;;;;14.93;60.14;102238.31;7359514;19;20800;-66
2022/08/07 02:05:45;;;;;;;0.00;0.00;;;;;;;14.91;60.50;102234.84;7363849;19;20018;-66
2022/08/07 02:08:15;;;;;;;0.00;0.00;;;;;;;14.85;61.47;102233.19;7364382;19;20044;-65
2022/08/07 02:10:42;;;;;;;0.00;0.00;;;;;;;14.83;61.04;102226.19;7365598;19;20705;-65
2022/08/07 02:13:09;;;;;;;0.00;0.00;;;;;;;14.72;61.86;102219.34;7363653;19;20022;-66
2022/08/07 02:15:36;;;;;;;0.00;0.00;;;;;;;14.81;61.74;102234.13;7366652;19;20805;-65
2022/08/07 02:18:03;;;;;;;0.00;0.00;;;;;;;14.76;61.60;102228.94;7360178;19;20438;-64
2022/08/07 02:20:31;;;;;;;0.00;0.00;;;;;;;14.65;61.74;102209.81;7362542;19;20134;-66
2022/08/07 02:23:00;;;;;;;0.00;0.00;;;;;;;14.73;61.59;102226.34;7366226;19;20007;-65
2022/08/07 02:25:29;;;;;;;0.00;0.00;;;;;;;14.71;61.62;102232.53;7360246;19;20011;-65
2022/08/07 02:27:57;;;;;;;0.00;0.00;;;;;;;14.65;62.23;102220.34;7361017;19;20018;-65
2022/08/07 02:30:24;;;;;;;0.00;0.00;;;;;;;14.67;61.99;102226.44;7366886;19;20014;-64
2022/08/07 02:32:51;;;;;;;0.00;0.00;;;;;;;14.53;62.16;102207.38;7365033;19;20015;-65
2022/08/07 02:35:18;;;;;;;0.00;0.00;;;;;;;14.61;62.28;102228.31;7357934;19;20033;-64
2022/08/07 02:37:45;;;;;;;0.00;0.00;;;;;;;14.45;62.43;102206.59;7362799;19;20430;-65
2022/08/07 02:40:11;;;;;;;0.00;0.00;;;;;;;14.52;62.20;102226.66;7362416;19;20032;-65
2022/08/07 02:42:37;;;;;;;0.00;0.00;;;;;;;14.52;62.74;102227.53;7364010;19;20090;-64
2022/08/07 02:45:07;;;;;;;0.00;0.00;;;;;;;14.49;62.59;102231.97;7363893;19;22031;-65
2022/08/07 02:47:32;;;;;;;0.00;0.00;;;;;;;14.45;62.55;102231.13;7360369;19;20022;-66
2022/08/07 02:49:58;;;;;;;0.00;0.00;;;;;;;14.39;63.09;102236.44;7365275;19;20027;-66
2022/08/07 02:53:05;;;;;;;0.00;0.00;;;;;;;14.41;59.91;102234.69;7364946;19;20021;-65
2022/08/07 02:55:36;;;;;;;0.00;0.00;;;;;;;14.37;62.91;102240.88;7256942;19;2004348;-65
2022/08/07 02:58:05;;;;;;;0.00;0.00;;;;;;;14.35;63.32;102239.16;7359432;19;20025;-65
2022/08/07 03:00:33;;;;;;;0.00;0.00;;;;;;;14.34;62.92;102232.13;7360278;19;20100;-64
2022/08/07 03:03:01;;;;;;;0.00;0.00;;;;;;;14.30;62.62;102230.47;7365725;19;20529;-65
2022/08/07 03:05:27;;;;;;;;;;;;;;;14.33;58.59;102246.19;7351563;19;20011;-64
2022/08/07 03:07:54;;;;;;;0.00;0.00;;;;;;;14.29;62.43;102234.81;7364058;19;20681;-65
2022/08/07 03:10:20;;;;;;;0.00;0.00;;;;;;;14.21;63.25;102221.81;7365621;19;20035;-65
2022/08/07 03:12:47;;;;;;;0.00;0.00;;;;;;;14.22;63.34;102236.69;7364350;19;20849;-65
2022/08/07 03:15:13;;;;;;;0.00;0.00;;;;;;;14.22;63.16;102228.78;7362976;19;20035;-65
2022/08/07 03:17:41;;;;;;;0.00;0.00;;;;;;;14.19;63.01;102239.38;7364105;19;20408;-65
2022/08/07 03:20:07;;;;;;;0.00;0.00;;;;;;;14.17;63.40;102237.63;7352327;19;20146;-65
2022/08/07 03:22:33;;;;;;;0.00;0.00;;;;;;;14.13;63.33;102236.78;7360002;19;20018;-66
2022/08/07 03:24:59;;;;;;;0.00;0.00;;;;;;;14.10;63.32;102234.22;7361052;19;20098;-65
2022/08/07 03:27:26;;;;;;;0.00;0.00;;;;;;;14.08;63.16;102232.50;7360825;19;20454;-65
2022/08/07 03:29:52;;;;;;;0.00;0.00;;;;;;;13.98;63.64;102215.97;7362144;19;20015;-66
2022/08/07 03:32:21;;;;;;;0.00;0.00;;;;;;;14.02;63.25;102226.44;7357067;19;20120;-66
2022/08/07 03:34:50;;;;;;;0.00;0.00;;;;;;;13.88;63.61;102206.47;7362724;19;20587;-65
2022/08/07 03:37:18;;;;;;;0.00;0.00;;;;;;;13.96;63.55;102220.38;7361167;19;20010;-65
2022/08/07 03:39:46;;;;;;;0.00;0.00;;;;;;;13.79;63.50;102198.69;7362482;19;20588;-65
2022/08/07 03:42:13;;;;;;;0.00;0.00;;;;;;;13.91;63.90;102222.19;7360969;19;20022;-66
2022/08/07 03:44:39;;;;;;;0.00;0.00;;;;;;;13.87;63.49;102225.75;7361182;19;20013;-65
2022/08/07 03:47:06;;;;;;;0.00;0.00;;;;;;;13.82;63.55;102215.28;7359303;19;20819;-66
2022/08/07 03:49:32;;;;;;;0.00;0.00;;;;;;;13.81;63.69;102221.44;7365231;19;20014;-66
2022/08/07 03:51:59;;;;;;;0.00;0.00;;;;;;;13.79;64.34;102227.59;7362538;19;20010;-65
2022/08/07 03:54:24;;;;;;;0.00;0.00;;;;;;;13.75;63.91;102217.13;7364624;19;20031;-64
2022/08/07 03:56:52;;;;;;;0.00;0.00;;;;;;;13.64;63.62;102203.28;7363279;19;20006;-66
2022/08/07 03:59:17;;;;;;;0.00;0.00;;;;;;;13.65;64.13;102206.75;7365214;19;20007;-65
2022/08/07 04:01:45;;;;;;;0.00;0.00;;;;;;;13.66;64.32;102211.13;7362054;19;20110;-65
2022/08/07 04:04:11;;;;;;;0.05;0.05;;;;;;;13.51;63.76;102191.16;7363780;19;20015;-65
2022/08/07 04:06:39;;;;;;;0.00;0.00;;;;;;;13.63;64.27;102216.38;7358133;19;20600;-65
2022/08/07 04:09:06;;;;;;;0.00;0.00;;;;;;;13.61;64.56;102213.78;7363648;19;20126;-65
2022/08/07 04:11:33;;;;;;;0.00;0.00;;;;;;;13.58;63.95;102213.81;7360750;19;20019;-64
2022/08/07 04:14:01;;;;;;;0.00;0.00;;;;;;;13.56;64.21;102204.22;7361112;19;20119;-66
2022/08/07 04:16:27;;;;;;;0.00;0.00;;;;;;;13.54;64.13;102206.88;7365103;19;20023;-65
2022/08/07 04:18:52;;;;;;;0.00;0.00;;;;;;;13.49;64.16;102192.94;7364447;19;20010;-65
2022/08/07 04:21:18;;;;;;;0.00;0.00;;;;;;;13.48;64.46;102199.06;7361503;19;20022;-65
2022/08/07 04:23:44;;;;;;;0.00;0.00;;;;;;;13.46;64.91;102200.84;7362715;19;20458;-65
2022/08/07 04:26:10;;;;;;;0.00;0.00;;;;;;;13.41;64.79;102197.41;7363612;19;20010;-66
2022/08/07 04:28:35;;;;;;;0.00;0.00;;;;;;;13.38;64.85;102206.19;7364104;19;20017;-65
2022/08/07 04:31:01;;;;;;;0.00;0.00;;;;;;;13.35;65.10;102205.34;7361803;19;20010;-65
2022/08/07 04:33:27;;;;;;;0.00;0.00;;;;;;;13.23;65.15;102191.47;7365327;19;20019;-65
2022/08/07 04:35:53;;;;;;;0.00;0.00;;;;;;;13.20;65.32;102183.56;7361044;19;20018;-65
2022/08/07 04:38:19;;;;;;;0.00;0.00;;;;;;;13.29;65.16;102206.28;7364341;19;20012;-65
2022/08/07 04:40:46;;;;;;;0.00;0.00;;;;;;;13.28;65.63;102199.28;7361510;19;20006;-66
2022/08/07 04:43:16;;;;;;;0.00;0.00;;;;;;;13.27;65.57;102202.78;7363504;19;20366;-63
2022/08/07 04:46:00;;;;;;;0.00;0.00;;;;;;;13.28;63.45;102203.63;7361258;19;22487;-65
2022/08/07 04:48:50;;;;;;;0.00;0.00;;;;;;;13.25;63.28;102201.94;7362077;19;20024;-65
2022/08/07 04:51:37;;;;;;;0.00;0.00;;;;;;;13.22;64.86;102202.81;7363401;19;20720;-65
2022/08/07 04:54:11;;;;;;;0.00;0.00;;;;;;;13.20;65.63;102204.56;7360663;19;20021;-65
2022/08/07 04:56:46;;;;;;;0.00;0.00;;;;;;;13.19;65.22;102205.44;7360378;19;20014;-65
2022/08/07 04:59:20;;;;;;;0.00;0.00;;;;;;;13.19;65.25;102209.84;7357939;19;20010;-65
2022/08/07 05:01:53;;;;;;;0.00;0.00;;;;;;;13.11;64.73;102196.78;7362232;19;20003;-65
2022/08/07 05:04:41;;;;;;;0.00;0.00;;;;;;;13.16;65.06;102201.97;7357157;19;20011;-65
2022/08/07 05:07:19;;;;;;;0.00;0.00;;;;;;;13.18;65.14;102208.09;7358273;19;20018;-65
2022/08/07 05:10:12;;;;;;;0.00;0.00;;;;;;;13.14;63.88;102202.00;7361683;19;20353;-65
2022/08/07 05:12:43;;;;;;;0.00;0.00;;;;;;;13.08;66.08;102199.44;7259596;19;2004388;-66
2022/08/07 05:15:21;;;;;;;0.00;0.00;;;;;;;13.08;65.12;102196.81;7361924;19;20014;-65
2022/08/07 05:17:50;;;;;;;0.00;0.00;;;;;;;13.16;66.49;102213.34;7363199;19;20014;-65
2022/08/07 05:20:23;;;;;;;0.00;0.00;;;;;;;13.17;65.94;102217.69;7366278;19;20588;-65
2022/08/07 05:22:51;;;;;;;0.00;0.00;;;;;;;13.18;66.16;102218.59;7367734;19;20010;-66
2022/08/07 05:25:18;;;;;;;;;;;;;;;13.20;62.62;102220.31;7368344;19;20098;-64
2022/08/07 05:27:45;;;;;;;0.00;0.00;;;;;;;13.18;65.71;102219.47;7368596;19;19925;-65
2022/08/07 05:30:11;;;;;;;0.00;0.00;;;;;;;13.20;66.11;102222.91;7364496;19;20430;-65
2022/08/07 05:32:38;;;;;;;0.00;0.00;;;;;;;13.21;66.47;102224.69;7368985;19;20074;-65
2022/08/07 05:35:07;;;;;;;0.00;0.00;;;;;;;13.22;66.06;102236.03;7367934;19;20018;-66
2022/08/07 05:37:33;;;;;;;0.00;0.00;;;;;;;13.22;66.21;102230.81;7367955;19;20027;-65
2022/08/07 05:39:59;;;;;;;0.00;0.00;;;;;;;13.22;66.40;102226.41;7367531;19;20010;-65
2022/08/07 05:42:25;;;;;;;0.00;0.00;;;;;;;13.24;65.94;102227.28;7367061;19;20018;-65
2022/08/07 05:44:53;;;;;;;0.00;0.00;;;;;;;13.24;66.47;102224.69;7368334;19;20496;-66
2022/08/07 05:47:20;;;;;;;0.00;0.00;;;;;;;13.28;66.74;102227.25;7365791;19;20457;-65
2022/08/07 05:49:49;;;;;;;0.00;0.00;;;;;;;13.27;66.21;102228.13;7366613;19;20030;-65
2022/08/07 05:52:19;;;;;;;0.00;0.00;;;;;;;13.22;66.70;102205.44;7364080;19;20014;-66
2022/08/07 05:54:44;;;;;;;0.00;0.00;;;;;;;13.35;66.51;102219.31;7365778;19;20006;-65
2022/08/07 05:57:11;;;;;;;0.00;0.00;;;;;;;13.37;66.47;102233.28;7365974;19;20010;-64
2022/08/07 05:59:39;;;;;;;0.00;0.00;;;;;;;13.40;66.94;102229.78;7359532;19;20006;-65
2022/08/07 06:02:05;;;;;;;;;;;;;;;13.46;62.45;102229.69;7364806;19;20014;-65
2022/08/07 06:04:38;;;;;;;0.00;0.00;;;;;;;13.46;66.46;102229.69;7367664;19;19919;-65
2022/08/07 06:07:04;;;;;;;0.00;0.00;;;;;;;13.42;66.54;102220.13;7364429;19;20089;-66
2022/08/07 06:09:33;;;;;;;0.00;0.00;;;;;;;13.48;66.43;102227.91;7363463;19;20024;-63
2022/08/07 06:11:59;;;;;;;0.00;0.00;;;;;;;13.49;66.99;102213.94;7365415;19;20133;-66
2022/08/07 06:14:25;;;;;;;0.00;0.00;;;;;;;13.41;66.98;102215.75;7366019;19;20102;-65
2022/08/07 06:16:51;;;;;;;0.00;0.00;;;;;;;13.43;67.21;102213.97;7363711;19;20021;-65
2022/08/07 06:19:17;;;;;;;0.00;0.00;;;;;;;13.51;67.25;102217.41;7365171;19;20642;-66
2022/08/07 06:21:44;;;;;;;0.00;0.00;;;;;;;13.63;67.24;102238.25;7363711;19;20045;-65
2022/08/07 06:24:10;;;;;;;0.00;0.00;;;;;;;13.65;67.12;102231.25;7363817;19;20010;-66
2022/08/07 06:26:39;;;;;;;0.00;0.00;;;;;;;13.67;66.84;102226.84;7360722;19;20013;-65
2022/08/07 06:29:04;;;;;;;0.00;0.00;;;;;;;13.77;67.45;102231.09;7362108;19;20014;-66
2022/08/07 06:31:30;;;;;;;0.00;0.00;;;;;;;13.83;67.01;102229.28;7365781;19;20830;-65
2022/08/07 06:33:55;;;;;;;0.00;0.00;;;;;;;13.91;67.04;102230.09;7363350;19;20006;-65
2022/08/07 06:36:21;;;;;;;0.00;0.00;;;;;;;13.95;67.22;102223.91;7365386;19;20006;-65
2022/08/07 06:38:46;;;;;;;0.10;0.10;;;;;;;14.01;67.17;102223.81;7364164;19;20673;-65
2022/08/07 06:41:19;;;;;;;0.00;0.00;;;;;;;14.09;66.96;102226.34;7367117;19;20025;-65
2022/08/07 06:43:46;;;;;;;0.00;0.00;;;;;;;14.13;67.64;102228.91;7363083;19;20691;-65
2022/08/07 06:46:13;;;;;;;0.00;0.00;;;;;;;14.18;67.11;102221.84;7366251;19;20038;-64
2022/08/07 06:48:39;;;;;;;0.00;0.00;;;;;;;14.23;67.67;102220.03;7363878;19;20022;-65
2022/08/07 06:51:08;;;;;;;0.00;0.00;;;;;;;14.31;67.35;102217.31;7363492;19;20070;-66
2022/08/07 06:53:37;;;;;;;0.00;0.00;;;;;;;14.34;67.11;102221.63;7362077;19;20064;-64
2022/08/07 06:56:05;;;;;;;0.10;0.10;;;;;;;14.42;67.60;102225.03;7366861;19;20011;-66
2022/08/07 06:58:34;;;;;;;0.00;0.00;;;;;;;14.46;66.34;102221.47;7361212;19;20090;-66
2022/08/07 07:01:02;;;;;;;0.00;0.00;;;;;;;14.51;67.05;102219.69;7365320;19;20027;-66
2022/08/07 07:03:27;;;;;;;0.00;0.00;;;;;;;14.55;67.30;102221.38;7362104;19;20014;-66
2022/08/07 07:05:53;;;;;;;0.00;0.00;;;;;;;14.60;66.16;102219.53;7362204;19;20701;-65
2022/08/07 07:08:24;;;;;;;0.00;0.00;;;;;;;14.67;66.38;102215.06;7363481;19;20129;-65
2022/08/07 07:10:50;;;;;;;0.00;0.00;;;;;;;14.68;67.45;102212.38;7357855;19;20015;-65
2022/08/07 07:13:37;;;;;;;0.00;0.00;;;;;;;14.62;67.04;102191.47;7364666;19;20014;-66
2022/08/07 07:16:08;;;;;;;0.00;0.00;;;;;;;14.79;66.70;102207.81;7262345;19;2004194;-65
2022/08/07 07:18:41;;;;;;;0.00;0.00;;;;;;;14.85;66.62;102203.34;7351564;19;20025;-66
2022/08/07 07:21:19;;;;;;;0.00;0.00;;;;;;;14.88;66.96;102209.44;7362227;19;20014;-66
2022/08/07 07:23:45;;;;;;;0.00;0.00;;;;;;;14.92;67.20;102221.66;7364058;19;20043;-66
2022/08/07 07:26:14;;;;;;;0.03;0.03;;;;;;;14.98;67.68;102212.78;7362061;19;21403;-65
2022/08/07 07:28:51;;;;;;;0.10;0.10;;;;;;;15.06;67.21;102221.44;7363463;19;20079;-66
2022/08/07 07:31:23;;;;;;;0.05;0.05;;;;;;;15.11;67.31;102227.50;7362707;19;20027;-66
2022/08/07 07:33:53;;;;;;;0.10;0.10;;;;;;;15.19;67.17;102222.94;7363056;19;20015;-65
2022/08/07 07:36:21;;;;;;;0.00;0.00;;;;;;;15.24;67.30;102221.09;7364878;19;20025;-66
2022/08/07 07:38:47;;;;;;;0.00;0.00;;;;;;;15.31;67.47;102232.41;7361632;19;20006;-65
2022/08/07 07:41:16;;;;;;;0.00;0.00;;;;;;;15.41;67.30;102222.53;7364975;19;20027;-65
2022/08/07 07:43:45;;;;;;;0.00;0.00;;;;;;;15.42;67.26;102216.41;7363088;19;20457;-65
2022/08/07 07:46:13;;;;;;;0.00;0.00;;;;;;;15.55;67.56;102223.16;7361918;19;20019;-66
2022/08/07 07:48:40;;;;;;;0.00;0.00;;;;;;;15.61;67.96;102228.31;7363944;19;22178;-65
2022/08/07 07:51:06;;;;;;;0.00;0.00;;;;;;;15.68;67.28;102213.31;7362310;19;20335;-66
2022/08/07 07:53:36;;;;;;;0.03;0.03;;;;;;;15.78;67.00;102213.09;7364124;19;20978;-64
2022/08/07 07:56:03;;;;;;;0.00;0.00;;;;;;;15.72;67.36;102192.16;7361279;19;20533;-66
2022/08/07 07:58:32;;;;;;;0.00;0.00;;;;;;;15.94;66.82;102210.13;7360665;19;20018;-65
2022/08/07 08:00:59;;;;;;;0.10;0.10;;;;;;;16.02;67.02;102205.59;7363611;19;20030;-63
2022/08/07 08:03:28;;;;;;;0.08;0.08;;;;;;;16.11;66.99;102207.13;7361747;19;20007;-66
2022/08/07 08:05:54;;;;;;;0.00;0.00;;;;;;;16.18;67.05;102214.88;7358614;19;20023;-65
2022/08/07 08:08:24;;;;;;;0.00;0.00;;;;;;;16.27;66.63;102214.69;7359959;19;20046;-65
2022/08/07 08:10:50;;;;;;;0.00;0.00;;;;;;;16.33;66.40;102211.06;7365073;19;20159;-65
2022/08/07 08:13:16;;;;;;;0.00;0.00;;;;;;;16.41;66.06;102211.72;7363225;19;20110;-66
2022/08/07 08:15:45;;;;;;;0.00;0.00;;;;;;;16.51;66.05;102217.66;7362258;19;20358;-65
2022/08/07 08:18:10;;;;;;;0.00;0.00;;;;;;;16.56;65.99;102215.78;7362914;19;20017;-66
2022/08/07 08:20:39;;;;;;;0.00;0.00;;;;;;;16.63;66.32;102213.88;7363817;19;20015;-65
2022/08/07 08:28:36;;;;;;;0.00;0.00;;;;;;;16.81;64.96;102190.56;7364145;19;20034;-66
2022/08/07 08:31:04;;;;;;;0.08;0.08;;;;;;;16.93;65.27;102199.09;7362365;19;20038;-65
2022/08/07 08:33:35;;;;;;;0.00;0.00;;;;;;;17.05;64.50;102198.78;7364071;19;20059;-65
2022/08/07 08:36:02;;;;;;;0.00;0.00;;;;;;;17.09;65.04;102200.44;7361305;19;20554;-66
2022/08/07 08:38:34;;;;;;;0.10;0.10;;;;;;;17.19;64.91;102201.06;7360553;19;20035;-64
2022/08/07 08:41:21;;;;;;;0.10;0.10;;;;;;;17.30;63.77;102199.00;7359333;19;20014;-66
2022/08/07 08:44:16;;;;;;;0.00;0.00;;;;;;;17.37;63.95;102198.78;7359716;19;20429;-66
2022/08/07 08:47:08;;;;;;;0.10;0.10;;;;;;;17.48;63.02;102197.63;7253985;19;2004878;-65
2022/08/07 08:49:55;;;;;;;0.10;0.10;;;;;;;17.51;63.74;102189.63;7258214;19;2004549;-66
2022/08/07 08:52:56;;;;;;;;;;;;;;;17.68;62.21;102189.16;7261433;19;2004561;-66
2022/08/07 08:55:29;;;;;;;0.00;0.00;;;;;;;17.75;63.34;102196.91;7253739;19;2004162;-65
2022/08/07 08:58:02;;;;;;;0.00;0.00;;;;;;;17.83;63.35;102188.75;7359921;19;20012;-66
2022/08/07 09:00:31;;;;;;;0.00;0.00;;;;;;;17.93;63.63;102182.28;7365232;19;20054;-66
2022/08/07 09:03:09;;;;;;;0.00;0.00;;;;;;;18.05;63.19;102184.56;7362369;19;20013;-65
2022/08/07 09:05:50;;;;;;;0.00;0.00;;;;;;;18.19;62.33;102186.75;7364190;19;20125;-66
2022/08/07 09:08:38;;;;;;;0.00;0.00;;;;;;;18.31;62.15;102186.41;7361019;19;20010;-66
2022/08/07 09:11:29;;;;;;;0.00;0.00;;;;;;;18.48;61.82;102188.50;7361540;19;20014;-65
2022/08/07 09:14:16;;;;;;;0.00;0.00;;;;;;;18.72;61.71;102186.88;7262184;19;2004357;-67
2022/08/07 09:16:48;;;;;;;0.00;0.00;;;;;;;18.95;61.67;102194.03;7362505;19;20011;-65
2022/08/07 09:19:27;;;;;;;0.00;0.00;;;;;;;19.25;61.26;102192.13;7360169;19;20015;-66
2022/08/07 09:21:52;;;;;;;0.00;0.00;;;;;;;19.49;59.81;102178.94;7359397;19;20014;-66
2022/08/07 09:24:23;;;;;;;0.00;0.00;;;;;;;19.78;60.08;102184.06;7345359;19;20012;-66
2022/08/07 09:27:15;;;;;;;0.00;0.00;;;;;;;20.16;59.63;102187.88;7336294;19;22066;-65
2022/08/07 09:29:51;;;;;;;0.10;0.10;;;;;;;20.50;58.50;102180.41;7225738;19;2004463;-65
2022/08/07 09:32:40;;;;;;;0.00;0.00;;;;;;;20.80;58.17;102184.44;7335263;19;20007;-66
2022/08/07 09:35:36;;;;;;;0.00;0.00;;;;;;;21.16;57.73;102186.47;7355082;19;20010;-66
2022/08/07 09:38:06;;;;;;;0.10;0.10;;;;;;;21.44;56.48;102181.69;7251633;19;2004473;-66
2022/08/07 09:40:49;;;;;;;0.00;0.00;;;;;;;21.80;55.98;102188.06;7360003;19;20077;-66
2022/08/07 09:43:24;;;;;;;0.00;0.00;;;;;;;21.99;53.58;102179.13;7344585;19;20014;-66
2022/08/07 09:46:10;;;;;;;0.00;0.00;;;;;;;22.24;53.37;102186.00;7355992;19;20006;-66
2022/08/07 09:48:38;;;;;;;0.00;0.00;;;;;;;22.39;53.40;102134.69;7357677;19;20014;-66
2022/08/07 09:51:03;;;;;;;0.00;0.00;;;;;;;22.84;52.06;102172.41;7360128;19;20044;-66
2022/08/07 09:53:37;;;;;;;0.00;0.00;;;;;;;23.22;52.27;102175.78;7362481;19;20550;-67
2022/08/07 09:56:38;;;;;;;0.00;0.00;;;;;;;23.49;52.24;102176.97;7359267;19;20014;-66
2022/08/07 09:59:10;;;;;;;0.00;0.00;;;;;;;23.80;49.13;102170.88;7252973;19;2004376;-67
2022/08/07 10:02:03;;;;;;;0.10;0.10;;;;;;;24.26;52.00;102175.44;7354383;19;20018;-66
2022/08/07 10:04:44;;;;;;;0.05;0.05;;;;;;;24.52;50.77;102185.53;7254345;19;2004658;-67
2022/08/07 10:07:57;;;;;;;0.00;0.00;;;;;;;24.84;51.07;102180.13;7360901;19;20074;-66
2022/08/07 10:10:28;;;;;;;0.10;0.10;;;;;;;24.96;47.76;102179.38;7253103;19;2004276;-66
2022/08/07 10:13:41;;;;;;;0.10;0.10;;;;;;;25.03;48.04;102179.88;7361068;19;20070;-66
2022/08/07 10:16:09;;;;;;;0.00;0.00;;;;;;;25.05;46.55;102180.66;7255685;19;2004480;-66
2022/08/07 10:18:56;;;;;;;0.10;0.10;;;;;;;25.13;46.09;102180.22;7359667;19;20018;-67
2022/08/07 10:21:45;;;;;;;0.05;0.05;;;;;;;25.49;47.49;102169.91;7360821;19;20016;-67
2022/08/07 10:24:44;;;;;;;0.10;0.10;;;;;;;25.83;47.49;102170.50;7364714;19;20058;-67
2022/08/07 10:27:25;;;;;;;0.10;0.10;;;;;;;26.19;45.68;102171.78;7259450;19;2004496;-67
2022/08/07 10:30:12;;;;;;;0.00;0.00;;;;;;;26.54;46.95;102170.34;7360058;19;20728;-66
2022/08/07 10:32:56;;;;;;;0.08;0.08;;;;;;;26.67;43.15;102173.06;7359689;19;20776;-66
2022/08/07 10:35:40;;;;;;;0.00;0.00;;;;;;;27.06;45.13;102179.31;7365145;19;20469;-66
2022/08/07 10:38:33;;;;;;;0.10;0.10;;;;;;;27.18;45.27;102183.03;7360073;19;20761;-66
2022/08/07 10:41:25;;;;;;;0.10;0.10;;;;;;;27.22;44.20;102179.16;7252700;19;2004595;-66
2022/08/07 10:43:53;;;;;;;0.10;0.10;;;;;;;27.14;42.03;102180.56;7244535;19;2004433;-66
2022/08/07 10:46:24;;;;;;;0.10;0.10;;;;;;;27.13;43.03;102178.84;7354895;19;20003;-66
2022/08/07 10:49:18;;;;;;;0.00;0.00;;;;;;;27.15;43.82;102178.72;7359954;19;20683;-68
2022/08/07 10:52:37;;;;;;;0.10;0.10;;;;;;;27.23;44.49;102175.53;7261130;19;2004332;-66
2022/08/07 10:55:16;;;;;;;0.10;0.10;;;;;;;27.25;43.05;102179.81;7153971;19;2004517;-66
2022/08/07 10:57:41;;;;;;;0.00;0.00;;;;;;;27.13;41.28;102176.16;7358612;19;20050;-66
2022/08/07 11:00:15;;;;;;;0.10;0.10;;;;;;;27.12;42.78;102169.09;7356643;19;20007;-66
2022/08/07 11:03:02;;;;;;;0.10;0.10;;;;;;;27.28;43.45;102181.44;7356066;19;20094;-66
2022/08/07 11:05:30;;;;;;;0.10;0.10;;;;;;;27.44;41.94;102174.03;7352383;19;20041;-66
2022/08/07 11:08:28;;;;;;;0.00;0.00;;;;;;;27.86;43.36;102171.94;7351194;19;20023;-67
2022/08/07 11:11:18;;;;;;;0.10;0.10;;;;;;;28.17;40.50;102178.59;7253019;19;2004639;-66
2022/08/07 11:13:56;;;;;;;0.00;0.00;;;;;;;28.36;40.38;102179.00;7257233;19;2004305;-67
2022/08/07 11:16:22;;;;;;;0.00;0.00;;;;;;;28.65;38.66;102175.94;7356879;19;20006;-67
2022/08/07 11:19:10;;;;;;;0.10;0.10;;;;;;;29.11;41.27;102176.00;7356183;19;20013;-64
2022/08/07 11:22:05;;;;;;;0.03;0.03;;;;;;;29.30;40.02;102169.13;7257332;19;2004444;-66
2022/08/07 11:25:02;;;;;;;0.00;0.00;;;;;;;29.55;40.02;102173.47;7255799;19;2004331;-63
2022/08/07 11:27:39;;;;;;;0.03;0.03;;;;;;;29.77;38.01;102172.63;7256564;19;2004483;-64
2022/08/07 11:30:06;;;;;;;0.08;0.08;;;;;;;30.01;36.53;102165.25;7357451;19;20010;-65
2022/08/07 11:32:38;;;;;;;0.00;0.00;;;;;;;30.45;37.31;102171.47;7355841;19;20118;-64
2022/08/07 11:35:10;;;;;;;0.03;0.03;;;;;;;30.80;37.16;102164.97;7347528;19;20017;-64
2022/08/07 11:37:45;;;;;;;0.10;0.10;;;;;;;30.91;34.18;102164.91;7353342;19;20033;-64
2022/08/07 11:40:51;;;;;;;0.00;0.00;;;;;;;31.20;37.54;102165.94;7354682;19;20111;-65
2022/08/07 11:43:41;;;;;;;0.00;0.00;;;;;;;31.20;37.17;102170.50;7256203;19;2005783;-64
2022/08/07 11:46:19;;;;;;;0.00;0.00;;;;;;;31.08;36.16;102164.31;7353535;19;20608;-65
2022/08/07 11:49:13;;;;;;;0.10;0.10;;;;;;;31.10;36.85;102164.19;7354682;19;20007;-65
2022/08/07 11:51:53;;;;;;;0.08;0.08;;;;;;;31.16;36.61;102169.03;7254359;19;2004617;-64